Time;durP1;ratioP1;P1;durP2;ratioP2;P2;SDS_P1;SDS_P2;PMS_P1;PMS_P2;Temp;Humidity;BMP_temperature;BMP_pressure;BME280_temperature;BME280_humidity;BME280_pressure;Samples;Min_cycle;Max_cycle;Signal;HPM_P1;HPM_P2
2024/01/06 00:01:21;;;;;;;2.40;1.50;;;;;;;;;;10403824;28;20044;-74
2024/01/06 00:06:26;;;;;;;2.22;1.27;;;;;;;;;;10402599;28;20503;-75
2024/01/06 00:11:30;;;;;;;1.05;0.88;;;;;;;;;;10401608;28;20553;-74
2024/01/06 00:16:33;;;;;;;0.82;0.80;;;;;;;;;;10393588;28;20136;-74
2024/01/06 00:21:37;;;;;;;0.95;0.65;;;;;;;;;;10396562;28;20050;-75
2024/01/06 00:26:41;;;;;;;0.55;0.50;;;;;;;;;;10398665;28;20053;-75
2024/01/06 00:31:44;;;;;;;1.65;0.50;;;;;;;;;;10394187;28;20050;-74
2024/01/06 00:36:48;;;;;;;2.17;0.60;;;;;;;;;;10402954;28;20069;-74
2024/01/06 00:41:52;;;;;;;0.90;0.52;;;;;;;;;;10395874;28;20121;-74
2024/01/06 00:46:55;;;;;;;2.78;0.80;;;;;;;;;;10387292;28;20040;-74
2024/01/06 00:51:59;;;;;;;0.75;0.60;;;;;;;;;;10401856;28;20044;-75
2024/01/06 00:57:03;;;;;;;2.80;0.98;;;;;;;;;;10389048;28;20061;-75
2024/01/06 01:02:06;;;;;;;2.10;0.77;;;;;;;;;;10388896;28;20651;-75
2024/01/06 01:07:10;;;;;;;1.95;0.90;;;;;;;;;;10394834;28;20092;-74
2024/01/06 01:12:14;;;;;;;2.05;0.93;;;;;;;;;;10395799;28;20040;-74
2024/01/06 01:17:17;;;;;;;1.15;0.90;;;;;;;;;;10394642;28;20045;-75
2024/01/06 01:22:22;;;;;;;2.22;0.73;;;;;;;;;;10401379;28;20049;-75
2024/01/06 01:27:25;;;;;;;1.48;0.93;;;;;;;;;;10401399;28;20067;-74
2024/01/06 01:32:28;;;;;;;2.80;0.98;;;;;;;;;;10397237;28;20158;-74
2024/01/06 01:37:33;;;;;;;2.00;0.80;;;;;;;;;;10395000;28;20163;-74
2024/01/06 01:42:37;;;;;;;2.05;0.82;;;;;;;;;;10401619;28;20049;-75
2024/01/06 01:47:40;;;;;;;0.60;0.60;;;;;;;;;;10396205;28;20045;-74
2024/01/06 01:52:45;;;;;;;1.17;0.82;;;;;;;;;;10387722;28;20542;-74
2024/01/06 01:57:48;;;;;;;0.77;0.70;;;;;;;;;;10409254;28;20049;-74
2024/01/06 02:02:52;;;;;;;1.83;0.90;;;;;;;;;;10392436;28;20553;-74
2024/01/06 02:07:57;;;;;;;0.85;0.80;;;;;;;;;;10398195;28;20041;-74
2024/01/06 02:13:09;;;;;;;1.52;1.00;;;;;;;;;;10390487;28;20064;-74
2024/01/06 02:18:13;;;;;;;1.08;0.73;;;;;;;;;;10403273;28;20466;-75
2024/01/06 02:23:17;;;;;;;1.48;0.93;;;;;;;;;;10411956;28;20052;-74
2024/01/06 02:28:21;;;;;;;2.25;1.00;;;;;;;;;;10395562;28;20055;-75
2024/01/06 02:33:24;;;;;;;1.67;0.90;;;;;;;;;;10398251;28;20033;-74
2024/01/06 02:38:29;;;;;;;3.35;1.63;;;;;;;;;;10390945;28;20045;-75
2024/01/06 02:43:32;;;;;;;3.05;1.38;;;;;;;;;;10392111;28;20414;-75
2024/01/06 02:48:35;;;;;;;2.10;1.05;;;;;;;;;;10379557;28;20052;-74
2024/01/06 02:53:40;;;;;;;1.10;0.80;;;;;;;;;;10391830;28;20115;-75
2024/01/06 02:58:43;;;;;;;1.90;0.98;;;;;;;;;;10382038;28;20395;-75
2024/01/06 03:03:46;;;;;;;1.20;0.93;;;;;;;;;;10388142;28;20046;-74
2024/01/06 03:08:51;;;;;;;1.13;0.80;;;;;;;;;;10394292;28;20135;-74
2024/01/06 03:13:54;;;;;;;1.77;0.98;;;;;;;;;;10387354;28;20054;-74
2024/01/06 03:18:57;;;;;;;1.27;0.80;;;;;;;;;;10394169;28;20418;-74
2024/01/06 03:24:02;;;;;;;0.75;0.65;;;;;;;;;;10387623;28;20399;-74
2024/01/06 03:29:06;;;;;;;0.82;0.65;;;;;;;;;;10382702;28;20424;-75
2024/01/06 03:34:10;;;;;;;0.90;0.55;;;;;;;;;;10392425;28;20159;-74
2024/01/06 03:39:15;;;;;;;0.82;0.60;;;;;;;;;;10389031;28;20045;-75
2024/01/06 03:44:18;;;;;;;0.75;0.55;;;;;;;;;;10386146;28;20542;-74
2024/01/06 03:49:22;;;;;;;0.73;0.50;;;;;;;;;;10385924;28;20073;-75
2024/01/06 03:54:26;;;;;;;0.80;0.60;;;;;;;;;;10388367;28;20037;-75
2024/01/06 03:59:29;;;;;;;1.65;0.60;;;;;;;;;;10381802;28;20049;-74
2024/01/06 04:04:33;;;;;;;1.05;0.50;;;;;;;;;;10387293;28;20068;-74
2024/01/06 04:09:37;;;;;;;0.63;0.60;;;;;;;;;;10383405;28;20174;-75
2024/01/06 04:14:41;;;;;;;1.55;0.60;;;;;;;;;;10388938;28;20095;-74
2024/01/06 04:19:44;;;;;;;0.40;0.40;;;;;;;;;;10385426;28;20045;-74
2024/01/06 04:24:49;;;;;;;0.70;0.60;;;;;;;;;;10380196;28;20589;-75
2024/01/06 04:29:53;;;;;;;0.65;0.40;;;;;;;;;;10389791;28;20485;-75
2024/01/06 04:34:57;;;;;;;0.70;0.70;;;;;;;;;;10405170;28;20132;-74
2024/01/06 04:40:02;;;;;;;0.50;0.50;;;;;;;;;;10397096;28;20045;-75
2024/01/06 04:45:06;;;;;;;0.50;0.50;;;;;;;;;;10400485;28;20044;-74
2024/01/06 04:50:10;;;;;;;1.17;0.73;;;;;;;;;;10392976;28;20038;-74
2024/01/06 04:55:15;;;;;;;0.85;0.73;;;;;;;;;;10399389;28;20113;-75
2024/01/06 05:00:18;;;;;;;1.27;0.73;;;;;;;;;;10398415;28;20423;-75
2024/01/06 05:05:22;;;;;;;0.98;0.70;;;;;;;;;;10435978;22;20072;-75
2024/01/06 05:10:27;;;;;;;0.80;0.50;;;;;;;;;;10403160;28;20462;-73
2024/01/06 05:15:30;;;;;;;0.85;0.68;;;;;;;;;;10395685;28;20076;-73
2024/01/06 05:20:34;;;;;;;0.85;0.75;;;;;;;;;;10394375;28;20037;-73
2024/01/06 05:25:38;;;;;;;0.75;0.60;;;;;;;;;;10394273;28;20047;-73
2024/01/06 05:30:41;;;;;;;1.08;0.57;;;;;;;;;;10402403;28;20068;-73
2024/01/06 05:35:45;;;;;;;1.20;0.85;;;;;;;;;;10389344;28;20459;-73
2024/01/06 05:40:49;;;;;;;0.50;0.50;;;;;;;;;;10393075;28;20053;-73
2024/01/06 05:45:53;;;;;;;0.90;0.65;;;;;;;;;;10386004;28;20030;-73
2024/01/06 05:50:56;;;;;;;1.20;0.80;;;;;;;;;;10402921;28;20077;-73
2024/01/06 05:56:01;;;;;;;1.85;0.85;;;;;;;;;;10399781;28;20077;-73
2024/01/06 06:01:04;;;;;;;0.50;0.50;;;;;;;;;;10397587;28;20061;-73
2024/01/06 06:06:08;;;;;;;1.27;0.60;;;;;;;;;;10398358;28;20049;-73
2024/01/06 06:11:12;;;;;;;0.75;0.70;;;;;;;;;;10392785;28;20606;-73
2024/01/06 06:16:15;;;;;;;0.60;0.60;;;;;;;;;;10392358;28;20211;-73
2024/01/06 06:21:19;;;;;;;1.48;0.90;;;;;;;;;;10396413;28;20056;-73
2024/01/06 06:26:23;;;;;;;0.77;0.75;;;;;;;;;;10397093;28;20397;-73
2024/01/06 06:31:26;;;;;;;1.45;0.75;;;;;;;;;;10390257;28;20068;-73
2024/01/06 06:36:30;;;;;;;0.73;0.57;;;;;;;;;;10392516;28;20042;-73
2024/01/06 06:41:34;;;;;;;1.02;0.60;;;;;;;;;;10380995;28;20128;-73
2024/01/06 06:46:38;;;;;;;1.25;0.70;;;;;;;;;;10380291;28;20056;-73
2024/01/06 06:51:46;;;;;;;0.70;0.60;;;;;;;;;;10383698;28;20047;-73
2024/01/06 06:56:51;;;;;;;0.70;0.57;;;;;;;;;;10393882;28;20108;-73
2024/01/06 07:01:54;;;;;;;0.68;0.65;;;;;;;;;;10389861;28;20578;-73
2024/01/06 07:06:57;;;;;;;0.55;0.55;;;;;;;;;;10395721;28;20132;-73
2024/01/06 07:12:02;;;;;;;0.60;0.60;;;;;;;;;;10399013;28;20041;-73
2024/01/06 07:17:05;;;;;;;0.60;0.60;;;;;;;;;;10397082;28;20045;-73
2024/01/06 07:22:08;;;;;;;0.70;0.70;;;;;;;;;;10394836;28;20053;-73
2024/01/06 07:27:13;;;;;;;0.65;0.65;;;;;;;;;;10391008;28;20471;-73
2024/01/06 07:32:16;;;;;;;1.65;0.70;;;;;;;;;;10389352;28;20090;-73
2024/01/06 07:37:20;;;;;;;1.65;0.70;;;;;;;;;;10385335;28;20049;-73
2024/01/06 07:42:24;;;;;;;3.13;1.50;;;;;;;;;;10397271;28;20046;-72
2024/01/06 07:47:27;;;;;;;5.80;3.10;;;;;;;;;;10400889;28;20582;-74
2024/01/06 07:52:31;;;;;;;4.32;2.50;;;;;;;;;;10395024;28;20045;-73
2024/01/06 07:57:35;;;;;;;5.45;2.90;;;;;;;;;;10389452;28;20391;-73
2024/01/06 08:02:38;;;;;;;2.90;2.00;;;;;;;;;;10398501;28;20529;-73
2024/01/06 08:07:42;;;;;;;1.42;1.33;;;;;;;;;;10389052;28;20045;-73
2024/01/06 08:12:46;;;;;;;2.53;1.08;;;;;;;;;;10403350;28;20069;-73
2024/01/06 08:17:50;;;;;;;1.40;0.80;;;;;;;;;;10396152;28;20050;-73
2024/01/06 08:22:53;;;;;;;4.88;1.30;;;;;;;;;;10388897;28;20443;-73
2024/01/06 08:27:57;;;;;;;1.15;1.05;;;;;;;;;;10377135;28;20470;-73
2024/01/06 08:33:01;;;;;;;1.30;1.20;;;;;;;;;;10398378;28;20515;-73
2024/01/06 08:38:04;;;;;;;1.60;1.30;;;;;;;;;;10405683;28;20677;-73
2024/01/06 08:43:09;;;;;;;1.00;0.90;;;;;;;;;;10402478;28;20042;-73
2024/01/06 08:48:13;;;;;;;1.60;1.08;;;;;;;;;;10396107;28;20045;-73
2024/01/06 08:53:17;;;;;;;1.00;0.90;;;;;;;;;;10377288;28;20040;-73
2024/01/06 08:58:21;;;;;;;2.45;1.02;;;;;;;;;;10395478;28;20060;-72
2024/01/06 09:03:25;;;;;;;0.80;0.80;;;;;;;;;;10405772;28;20050;-73
2024/01/06 09:08:29;;;;;;;2.50;1.13;;;;;;;;;;10400217;28;20103;-73
2024/01/06 09:13:33;;;;;;;3.65;0.98;;;;;;;;;;10398279;28;20029;-73
2024/01/06 09:18:36;;;;;;;1.13;1.00;;;;;;;;;;10403398;28;20297;-73
2024/01/06 09:23:40;;;;;;;1.70;1.20;;;;;;;;;;10399698;28;20077;-73
2024/01/06 09:28:44;;;;;;;2.00;1.20;;;;;;;;;;10398936;28;20052;-72
2024/01/06 09:33:49;;;;;;;1.10;0.80;;;;;;;;;;10402596;28;20699;-73
2024/01/06 09:38:52;;;;;;;1.95;1.05;;;;;;;;;;10399463;28;20057;-73
2024/01/06 09:43:57;;;;;;;1.85;0.90;;;;;;;;;;10392916;28;20057;-73
2024/01/06 09:49:02;;;;;;;1.40;1.17;;;;;;;;;;10402706;28;20521;-73
2024/01/06 09:54:10;;;;;;;1.52;0.95;;;;;;;;;;10397189;28;20064;-73
2024/01/06 09:59:15;;;;;;;2.78;1.63;;;;;;;;;;10394268;28;20037;-73
2024/01/06 10:04:18;;;;;;;2.00;1.52;;;;;;;;;;10395230;28;20052;-74
2024/01/06 10:09:28;;;;;;;2.70;1.35;;;;;;;;;;10396981;28;20044;-73
2024/01/06 10:14:33;;;;;;;1.20;1.10;;;;;;;;;;10399214;28;20073;-74
2024/01/06 10:19:38;;;;;;;2.42;1.60;;;;;;;;;;10387509;28;20040;-74
2024/01/06 10:24:42;;;;;;;2.60;1.88;;;;;;;;;;10388884;28;21119;-74
2024/01/06 10:29:47;;;;;;;2.85;2.55;;;;;;;;;;10395380;28;20041;-73
2024/01/06 10:34:50;;;;;;;2.33;1.67;;;;;;;;;;10381269;28;20045;-73
2024/01/06 10:40:07;;;;;;;1.77;1.52;;;;;;;;;;10387034;28;20682;-74
2024/01/06 10:45:13;;;;;;;2.67;1.83;;;;;;;;;;10399883;28;20049;-74
2024/01/06 10:50:19;;;;;;;2.03;1.60;;;;;;;;;;10395074;28;20051;-74
2024/01/06 10:55:23;;;;;;;2.10;1.80;;;;;;;;;;10373869;28;20722;-74
2024/01/06 11:00:28;;;;;;;1.55;1.38;;;;;;;;;;10391076;28;20053;-74
2024/01/06 11:05:32;;;;;;;1.90;1.70;;;;;;;;;;10391867;23;20053;-74
2024/01/06 11:10:36;;;;;;;1.85;1.50;;;;;;;;;;10321855;28;20050;-74
2024/01/06 11:15:49;;;;;;;3.05;1.73;;;;;;;;;;10337279;28;20045;-74
2024/01/06 11:21:18;;;;;;;1.65;1.55;;;;;;;;;;10347512;28;20054;-74
2024/01/06 11:26:23;;;;;;;3.85;2.40;;;;;;;;;;10334272;28;20083;-74
2024/01/06 11:31:31;;;;;;;2.97;2.17;;;;;;;;;;10338724;28;20530;-74
2024/01/06 11:36:35;;;;;;;3.33;2.45;;;;;;;;;;10329740;28;20072;-74
2024/01/06 11:41:50;;;;;;;2.92;2.20;;;;;;;;;;10321293;28;20042;-76
2024/01/06 11:46:58;;;;;;;4.23;3.50;;;;;;;;;;10337270;28;20631;-75
2024/01/06 11:52:03;;;;;;;8.65;5.65;;;;;;;;;;10337113;28;20046;-75
2024/01/06 11:57:06;;;;;;;5.63;4.38;;;;;;;;;;10322082;28;20042;-75
2024/01/06 12:02:13;;;;;;;4.88;3.42;;;;;;;;;;10344209;28;20464;-74
2024/01/06 12:07:17;;;;;;;6.65;4.88;;;;;;;;;;10337218;28;20547;-74
2024/01/06 12:12:20;;;;;;;4.93;3.47;;;;;;;;;;10341674;28;20116;-74
2024/01/06 12:17:30;;;;;;;4.82;3.20;;;;;;;;;;10336995;28;20113;-74
2024/01/06 12:22:33;;;;;;;6.03;4.53;;;;;;;;;;10339917;28;20746;-74
2024/01/06 12:27:36;;;;;;;6.80;4.88;;;;;;;;;;10348231;28;20426;-74
2024/01/06 12:32:42;;;;;;;5.68;4.05;;;;;;;;;;10343626;28;20096;-74
2024/01/06 12:37:46;;;;;;;6.73;4.60;;;;;;;;;;10339226;28;20048;-74
2024/01/06 12:42:49;;;;;;;5.60;4.03;;;;;;;;;;10345118;28;20629;-74
2024/01/06 12:47:55;;;;;;;3.83;3.13;;;;;;;;;;10343208;28;20582;-74
2024/01/06 12:52:58;;;;;;;6.45;4.40;;;;;;;;;;10343214;28;20089;-74
2024/01/06 12:58:03;;;;;;;7.10;5.10;;;;;;;;;;10340642;28;20127;-74
2024/01/06 13:03:08;;;;;;;8.95;6.18;;;;;;;;;;10322141;28;20045;-75
2024/01/06 13:08:12;;;;;;;9.07;6.07;;;;;;;;;;10342641;28;20114;-74
2024/01/06 13:13:16;;;;;;;8.80;6.60;;;;;;;;;;10320976;28;20042;-74
2024/01/06 13:18:20;;;;;;;6.32;4.30;;;;;;;;;;10343781;28;20561;-74
2024/01/06 13:23:24;;;;;;;5.65;3.75;;;;;;;;;;10339507;28;20439;-74
2024/01/06 13:28:27;;;;;;;7.97;5.07;;;;;;;;;;10346589;28;20045;-75
2024/01/06 13:33:32;;;;;;;5.78;3.80;;;;;;;;;;10339434;28;20518;-74
2024/01/06 13:38:35;;;;;;;4.28;2.67;;;;;;;;;;10342398;28;20561;-74
2024/01/06 13:56:47;;;;;;;4.93;3.00;;;;;;;;;;10335610;28;20123;-74
2024/01/06 14:07:34;;;;;;;3.40;2.85;;;;;;;;;;10340615;28;20034;-74
2024/01/06 14:12:40;;;;;;;3.13;2.08;;;;;;;;;;10347661;28;20410;-74
2024/01/06 14:17:49;;;;;;;3.72;2.88;;;;;;;;;;10335829;28;20038;-74
2024/01/06 14:23:15;;;;;;;3.20;2.53;;;;;;;;;;10332182;28;20074;-74
2024/01/06 14:29:24;;;;;;;3.37;2.50;;;;;;;;;;10348358;28;20774;-74
2024/01/06 14:34:36;;;;;;;3.42;2.40;;;;;;;;;;10325564;28;20376;-74
2024/01/06 14:39:39;;;;;;;3.22;2.50;;;;;;;;;;10324983;28;20133;-75
2024/01/06 14:44:44;;;;;;;4.15;2.75;;;;;;;;;;10336819;28;20048;-74
2024/01/06 14:49:47;;;;;;;4.60;3.30;;;;;;;;;;10324513;28;20056;-74
2024/01/06 14:55:26;;;;;;;4.07;2.80;;;;;;;;;;10338978;28;20050;-74
2024/01/06 15:00:33;;;;;;;7.68;3.90;;;;;;;;;;10336375;28;20038;-74
2024/01/06 15:05:36;;;;;;;7.38;4.30;;;;;;;;;;10332953;28;20070;-74
2024/01/06 15:17:47;;;;;;;7.22;4.70;;;;;;;;;;10339344;28;20066;-74
2024/01/06 15:22:50;;;;;;;7.47;4.85;;;;;;;;;;10339974;28;20150;-74
2024/01/06 15:27:54;;;;;;;9.27;6.03;;;;;;;;;;10339519;28;20038;-74
2024/01/06 15:32:59;;;;;;;8.30;5.78;;;;;;;;;;10343099;28;20052;-74
2024/01/06 15:38:02;;;;;;;7.38;5.57;;;;;;;;;;10335566;28;20311;-75
2024/01/06 15:43:06;;;;;;;8.65;5.20;;;;;;;;;;10339414;28;20041;-74
2024/01/06 15:48:10;;;;;;;4.72;3.60;;;;;;;;;;10349444;28;20129;-74
2024/01/06 15:53:14;;;;;;;5.43;3.55;;;;;;;;;;10346725;28;20738;-74
2024/01/06 15:58:18;;;;;;;5.93;3.88;;;;;;;;;;10347634;28;20041;-74
2024/01/06 16:03:23;;;;;;;6.18;4.05;;;;;;;;;;10348901;28;20053;-74
2024/01/06 16:08:26;;;;;;;6.20;4.22;;;;;;;;;;10345591;28;20046;-74
2024/01/06 16:13:29;;;;;;;6.93;4.25;;;;;;;;;;10337573;28;20038;-74
2024/01/06 16:18:54;;;;;;;8.43;5.38;;;;;;;;;;10345660;28;20038;-74
2024/01/06 16:24:40;;;;;;;7.80;5.10;;;;;;;;;;10340316;28;20054;-74
2024/01/06 16:29:43;;;;;;;6.82;4.20;;;;;;;;;;10343016;28;20462;-74
2024/01/06 16:34:48;;;;;;;5.50;3.70;;;;;;;;;;10352773;28;20500;-74
2024/01/06 16:39:52;;;;;;;6.88;4.85;;;;;;;;;;10349853;28;20061;-74
2024/01/06 16:44:58;;;;;;;7.68;5.05;;;;;;;;;;10353660;28;20049;-74
2024/01/06 16:50:05;;;;;;;5.97;4.30;;;;;;;;;;10360279;28;20042;-74
2024/01/06 16:55:09;;;;;;;7.83;5.10;;;;;;;;;;10336264;28;20057;-74
2024/01/06 17:00:13;;;;;;;6.68;4.57;;;;;;;;;;10341491;28;20298;-74
2024/01/06 17:05:18;;;;;;;6.65;4.13;;;;;;;;;;10341063;28;20048;-74
2024/01/06 17:10:21;;;;;;;8.82;6.10;;;;;;;;;;10339646;28;20076;-74
2024/01/06 17:15:26;;;;;;;6.85;5.05;;;;;;;;;;10343854;28;20038;-74
2024/01/06 17:20:31;;;;;;;5.97;4.33;;;;;;;;;;10342771;28;20149;-74
2024/01/06 17:25:35;;;;;;;11.65;5.75;;;;;;;;;;10340547;28;20485;-74
2024/01/06 17:30:38;;;;;;;7.03;4.60;;;;;;;;;;10327877;28;20516;-74
2024/01/06 17:35:44;;;;;;;11.68;6.63;;;;;;;;;;10344126;28;20758;-74
2024/01/06 17:40:47;;;;;;;;;;;;;;;;;;10341688;28;20133;-74
2024/01/06 17:45:50;;;;;;;7.15;4.55;;;;;;;;;;10326328;28;19948;-74
2024/01/06 17:50:55;;;;;;;12.65;8.30;;;;;;;;;;10342589;28;20046;-74
2024/01/06 17:55:58;;;;;;;10.73;6.90;;;;;;;;;;10336652;28;20035;-74
2024/01/06 18:01:02;;;;;;;17.95;10.80;;;;;;;;;;10346380;28;20062;-74
2024/01/06 18:06:07;;;;;;;9.90;7.13;;;;;;;;;;10346116;28;20127;-74
2024/01/06 18:11:10;;;;;;;12.77;8.38;;;;;;;;;;10339477;28;20655;-74
2024/01/06 18:16:14;;;;;;;8.55;5.75;;;;;;;;;;10340835;28;20046;-74
2024/01/06 18:21:19;;;;;;;9.05;5.90;;;;;;;;;;10348170;28;20046;-74
2024/01/06 18:26:22;;;;;;;8.38;5.97;;;;;;;;;;10340062;28;20096;-74
2024/01/06 18:31:25;;;;;;;8.00;5.57;;;;;;;;;;10324114;28;20040;-74
2024/01/06 18:36:30;;;;;;;5.38;4.18;;;;;;;;;;10337499;28;20073;-74
2024/01/06 18:41:33;;;;;;;4.10;2.80;;;;;;;;;;10339139;28;20527;-74
2024/01/06 18:46:37;;;;;;;7.25;4.43;;;;;;;;;;10343535;28;20139;-74
2024/01/06 18:51:42;;;;;;;4.57;3.40;;;;;;;;;;10342857;28;20412;-74
2024/01/06 18:56:45;;;;;;;5.32;2.95;;;;;;;;;;10324539;28;20133;-74
2024/01/06 19:01:49;;;;;;;5.07;3.63;;;;;;;;;;10338532;28;20073;-75
2024/01/06 19:06:54;;;;;;;3.53;2.88;;;;;;;;;;10336273;28;20613;-74
2024/01/06 19:12:01;;;;;;;3.38;2.50;;;;;;;;;;10334012;28;20572;-74
2024/01/06 19:17:05;;;;;;;5.32;3.92;;;;;;;;;;10336527;28;20050;-75
2024/01/06 19:22:09;;;;;;;6.68;4.38;;;;;;;;;;10337053;28;20046;-74
2024/01/06 19:27:13;;;;;;;4.90;3.47;;;;;;;;;;10337653;28;20042;-74
2024/01/06 19:32:17;;;;;;;4.45;3.40;;;;;;;;;;10338125;28;20045;-74
2024/01/06 19:37:22;;;;;;;4.35;3.22;;;;;;;;;;10339864;28;20154;-74
2024/01/06 19:42:26;;;;;;;4.75;3.10;;;;;;;;;;10332669;28;20706;-74
2024/01/06 19:47:30;;;;;;;7.82;4.75;;;;;;;;;;10330157;28;20061;-75
2024/01/06 19:52:36;;;;;;;6.45;4.93;;;;;;;;;;10342577;28;20038;-75
2024/01/06 19:57:39;;;;;;;6.43;4.70;;;;;;;;;;10335222;28;20133;-75
2024/01/06 20:02:42;;;;;;;4.93;3.55;;;;;;;;;;10338965;28;20137;-74
2024/01/06 20:07:47;;;;;;;5.78;3.80;;;;;;;;;;10341874;28;20054;-74
2024/01/06 20:12:50;;;;;;;7.43;4.60;;;;;;;;;;10349680;28;20132;-74
2024/01/06 20:17:53;;;;;;;9.50;5.85;;;;;;;;;;10345981;28;20125;-74
2024/01/06 20:22:58;;;;;;;9.38;5.55;;;;;;;;;;10343480;28;20604;-74
2024/01/06 20:28:02;;;;;;;9.63;6.47;;;;;;;;;;10334722;28;20060;-74
2024/01/06 20:33:05;;;;;;;8.55;5.00;;;;;;;;;;10350533;28;20050;-74
2024/01/06 20:38:10;;;;;;;5.85;4.38;;;;;;;;;;10350146;28;20568;-74
2024/01/06 20:43:13;;;;;;;8.13;4.97;;;;;;;;;;10335757;28;20042;-74
2024/01/06 20:48:17;;;;;;;6.55;3.90;;;;;;;;;;10340742;28;20060;-74
2024/01/06 20:53:22;;;;;;;9.70;5.38;;;;;;;;;;10340038;28;20120;-74
2024/01/06 20:58:25;;;;;;;12.88;6.82;;;;;;;;;;10329155;28;20046;-74
2024/01/06 21:03:28;;;;;;;11.73;7.15;;;;;;;;;;10342031;28;20133;-74
2024/01/06 21:08:33;;;;;;;7.05;4.50;;;;;;;;;;10343781;28;20042;-74
2024/01/06 21:13:36;;;;;;;9.82;6.72;;;;;;;;;;10343445;28;20044;-74
2024/01/06 21:18:40;;;;;;;7.03;5.28;;;;;;;;;;10344444;28;20046;-74
2024/01/06 21:23:44;;;;;;;7.07;5.43;;;;;;;;;;10343513;28;20081;-74
2024/01/06 21:28:50;;;;;;;7.35;5.93;;;;;;;;;;10342712;28;20042;-74
2024/01/06 21:33:53;;;;;;;6.53;5.40;;;;;;;;;;10343267;28;20149;-74
2024/01/06 21:38:59;;;;;;;6.85;4.65;;;;;;;;;;10343678;28;20483;-74
2024/01/06 21:44:03;;;;;;;7.20;4.57;;;;;;;;;;10336670;28;20130;-74
2024/01/06 21:49:06;;;;;;;5.47;4.05;;;;;;;;;;10340978;28;20034;-74
2024/01/06 21:54:11;;;;;;;7.97;5.50;;;;;;;;;;10335592;28;20042;-74
2024/01/06 21:59:14;;;;;;;5.25;3.92;;;;;;;;;;10347977;28;20038;-74
2024/01/06 22:04:17;;;;;;;5.30;3.97;;;;;;;;;;10348095;28;20042;-75
2024/01/06 22:09:22;;;;;;;5.00;3.50;;;;;;;;;;10347300;28;20054;-74
2024/01/06 22:14:25;;;;;;;3.80;2.90;;;;;;;;;;10340040;28;20680;-74
2024/01/06 22:19:28;;;;;;;4.90;3.13;;;;;;;;;;10337450;28;20507;-74
2024/01/06 22:24:33;;;;;;;5.40;4.07;;;;;;;;;;10343564;28;20046;-74
2024/01/06 22:29:39;;;;;;;4.82;3.47;;;;;;;;;;10340629;28;20097;-74
2024/01/06 22:34:44;;;;;;;6.43;4.63;;;;;;;;;;10354618;28;20057;-74
2024/01/06 22:39:48;;;;;;;5.63;3.97;;;;;;;;;;10350917;28;20050;-74
2024/01/06 22:44:52;;;;;;;5.50;4.30;;;;;;;;;;10342538;28;20053;-74
2024/01/06 22:49:55;;;;;;;7.15;5.25;;;;;;;;;;10333899;28;20038;-74
2024/01/06 22:54:59;;;;;;;6.07;3.88;;;;;;;;;;10323499;28;20392;-74
2024/01/06 23:00:10;;;;;;;9.95;6.32;;;;;;;;;;10343893;28;20137;-74
2024/01/06 23:05:14;;;;;;;8.15;5.13;;;;;;;;;;10354007;23;20046;-75
2024/01/06 23:10:19;;;;;;;4.55;3.38;;;;;;;;;;10398934;28;20107;-75
2024/01/06 23:15:23;;;;;;;7.13;5.05;;;;;;;;;;10375839;28;20697;-75
2024/01/06 23:20:26;;;;;;;6.88;4.80;;;;;;;;;;10394202;28;20040;-75
2024/01/06 23:25:31;;;;;;;7.43;5.60;;;;;;;;;;10390654;28;20108;-75
2024/01/06 23:30:35;;;;;;;9.02;6.55;;;;;;;;;;10393598;28;20408;-75
2024/01/06 23:35:39;;;;;;;9.85;5.82;;;;;;;;;;10387999;28;20071;-75
2024/01/06 23:40:43;;;;;;;5.63;4.32;;;;;;;;;;10388717;28;20041;-75
2024/01/06 23:45:46;;;;;;;5.93;4.13;;;;;;;;;;10399108;28;20048;-75
2024/01/06 23:50:50;;;;;;;5.72;4.00;;;;;;;;;;10397942;28;20077;-75
2024/01/06 23:55:55;;;;;;;8.68;5.25;;;;;;;;;;10393846;28;20136;-75
